Time,TemperatureF,DewpointF,PressureIn,WindDirection,WindDirectionDegrees,WindSpeedMPH,WindSpeedGustMPH,Humidity,HourlyPrecipIn,Conditions,Clouds,dailyrainin,SoftwareType,DateUTC
2013-06-05 00:00:00,55.9,50.5,30.13,SW,231,0.0,0.0,82,0.00,,,0.00,Wunderground v.1.13,2013-06-05 04:00:00,
2013-06-05 00:05:00,55.8,50.4,30.13,N/A,-737280,0.0,0.0,82,0.00,,,0.00,Wunderground v.1.13,2013-06-05 04:05:00,
2013-06-05 00:15:00,55.6,50.5,30.13,SW,231,0.0,0.0,83,0.00,,,0.00,Wunderground v.1.13,2013-06-05 04:15:00,
2013-06-05 00:20:00,55.5,50.4,30.13,SW,231,0.0,0.0,83,0.00,,,0.00,Wunderground v.1.13,2013-06-05 04:20:00,
2013-06-05 00:25:00,55.4,50.3,30.13,SW,231,0.0,0.0,83,0.00,,,0.00,Wunderground v.1.13,2013-06-05 04:25:00,
2013-06-05 00:30:00,55.3,50.2,30.13,SW,230,0.0,0.0,83,0.00,,,0.00,Wunderground v.1.13,2013-06-05 04:30:00,
2013-06-05 00:35:00,55.1,50.0,30.13,SW,231,0.0,0.0,83,0.00,,,0.00,Wunderground v.1.13,2013-06-05 04:35:00,
2013-06-05 00:40:00,55.1,50.4,30.13,SW,231,0.0,0.0,84,0.00,,,0.00,Wunderground v.1.13,2013-06-05 04:40:00,
2013-06-05 00:45:00,55.0,50.3,30.13,SW,230,0.0,0.0,84,0.00,,,0.00,Wunderground v.1.13,2013-06-05 04:45:00,
2013-06-05 00:55:00,54.8,50.1,30.13,SW,231,0.0,0.0,84,0.00,,,0.00,Wunderground v.1.13,2013-06-05 04:55:00,
2013-06-05 01:00:00,54.6,50.2,30.13,SW,231,0.0,0.0,85,0.00,,,0.00,Wunderground v.1.13,2013-06-05 05:00:00,
2013-06-05 01:05:00,54.5,50.1,30.13,N/A,-737280,0.0,0.0,85,0.00,,,0.00,Wunderground v.1.13,2013-06-05 05:05:00,
2013-06-05 01:15:00,54.2,49.8,30.13,SW,230,0.0,0.0,85,0.00,,,0.00,Wunderground v.1.13,2013-06-05 05:15:00,
2013-06-05 01:20:00,54.1,49.7,30.13,SW,231,0.0,0.0,85,0.00,,,0.00,Wunderground v.1.13,2013-06-05 05:20:00,
2013-06-05 01:25:00,54.0,49.9,30.12,SW,231,0.0,0.0,86,0.00,,,0.00,Wunderground v.1.13,2013-06-05 05:25:00,
2013-06-05 01:30:00,53.9,49.8,30.12,SW,231,0.0,0.0,86,0.00,,,0.00,Wunderground v.1.13,2013-06-05 05:30:00,
2013-06-05 01:35:00,53.9,49.8,30.12,SW,231,0.0,0.0,86,0.00,,,0.00,Wunderground v.1.13,2013-06-05 05:35:00,
2013-06-05 01:40:00,53.9,50.1,30.12,SW,230,0.0,0.0,87,0.00,,,0.00,Wunderground v.1.13,2013-06-05 05:40:00,
2013-06-05 01:50:00,53.6,49.8,30.12,SW,230,0.0,0.0,87,0.00,,,0.00,Wunderground v.1.13,2013-06-05 05:50:00,
2013-06-05 01:55:00,53.5,49.7,30.12,SW,230,0.0,0.0,87,0.00,,,0.00,Wunderground v.1.13,2013-06-05 05:55:00,
2013-06-05 02:00:00,53.3,49.5,30.12,SW,231,0.0,0.0,87,0.00,,,0.00,Wunderground v.1.13,2013-06-05 06:00:00,
2013-06-05 02:05:00,53.2,49.4,30.12,SW,231,0.0,0.0,87,0.00,,,0.00,Wunderground v.1.13,2013-06-05 06:05:00,
2013-06-05 02:15:00,53.0,49.5,30.11,SW,231,0.0,0.0,88,0.00,,,0.00,Wunderground v.1.13,2013-06-05 06:15:00,
2013-06-05 02:25:00,52.7,49.2,30.11,SW,230,0.0,0.0,88,0.00,,,0.00,Wunderground v.1.13,2013-06-05 06:25:00,
2013-06-05 02:35:00,52.6,49.1,30.11,SW,230,0.0,0.0,88,0.00,,,0.00,Wunderground v.1.13,2013-06-05 06:35:00,
2013-06-05 02:45:00,52.5,49.4,30.11,SW,231,0.0,0.0,89,0.00,,,0.00,Wunderground v.1.13,2013-06-05 06:45:00,
2013-06-05 02:55:00,52.3,49.2,30.11,SW,231,0.0,0.0,89,0.00,,,0.00,Wunderground v.1.13,2013-06-05 06:55:00,
2013-06-05 03:05:00,52.1,49.0,30.11,N/A,-737280,0.0,0.0,89,0.00,,,0.00,Wunderground v.1.13,2013-06-05 07:05:00,
2013-06-05 03:15:00,51.9,48.8,30.11,SW,231,0.0,0.0,89,0.00,,,0.00,Wunderground v.1.13,2013-06-05 07:15:00,
2013-06-05 03:20:00,51.8,48.7,30.11,SW,231,0.0,0.0,89,0.00,,,0.00,Wunderground v.1.13,2013-06-05 07:20:00,
2013-06-05 03:30:00,51.7,48.6,30.11,SW,230,0.0,0.0,89,0.00,,,0.00,Wunderground v.1.13,2013-06-05 07:30:00,
2013-06-05 03:35:00,51.6,48.5,30.11,SW,230,0.0,0.0,89,0.00,,,0.00,Wunderground v.1.13,2013-06-05 07:35:00,
2013-06-05 03:45:00,51.5,48.4,30.11,SW,231,0.0,0.0,89,0.00,,,0.00,Wunderground v.1.13,2013-06-05 07:45:00,
2013-06-05 03:55:00,51.3,48.2,30.11,SW,231,0.0,0.0,89,0.00,,,0.00,Wunderground v.1.13,2013-06-05 07:55:00,
2013-06-05 04:00:00,51.3,48.2,30.11,SW,231,0.0,0.0,89,0.00,,,0.00,Wunderground v.1.13,2013-06-05 08:00:00,
2013-06-05 04:05:00,51.2,48.1,30.10,N/A,-737280,0.0,0.0,89,0.00,,,0.00,Wunderground v.1.13,2013-06-05 08:05:00,
2013-06-05 04:15:00,51.1,48.0,30.11,SW,230,0.0,0.0,89,0.00,,,0.00,Wunderground v.1.13,2013-06-05 08:15:00,
2013-06-05 04:20:00,51.0,47.9,30.11,SW,231,0.0,0.0,89,0.00,,,0.00,Wunderground v.1.13,2013-06-05 08:20:00,
2013-06-05 04:25:00,50.9,47.8,30.11,SW,231,0.0,0.0,89,0.00,,,0.00,Wunderground v.1.13,2013-06-05 08:25:00,
2013-06-05 04:35:00,50.9,48.1,30.11,SW,231,0.0,0.0,90,0.00,,,0.00,Wunderground v.1.13,2013-06-05 08:35:00,
2013-06-05 04:40:00,50.9,48.1,30.11,SW,230,0.0,0.0,90,0.00,,,0.00,Wunderground v.1.13,2013-06-05 08:40:00,
2013-06-05 04:45:00,50.9,48.1,30.11,SW,230,0.0,0.0,90,0.00,,,0.00,Wunderground v.1.13,2013-06-05 08:45:00,
2013-06-05 04:50:00,50.8,48.0,30.11,SW,231,0.0,0.0,90,0.00,,,0.00,Wunderground v.1.13,2013-06-05 08:50:00,
2013-06-05 04:55:00,50.8,48.0,30.11,SW,231,0.0,0.0,90,0.00,,,0.00,Wunderground v.1.13,2013-06-05 08:55:00,
2013-06-05 05:00:00,50.8,48.0,30.11,SW,231,0.0,0.0,90,0.00,,,0.00,Wunderground v.1.13,2013-06-05 09:00:00,
2013-06-05 05:05:00,50.8,48.0,30.11,SW,231,0.0,0.0,90,0.00,,,0.00,Wunderground v.1.13,2013-06-05 09:05:00,
2013-06-05 05:15:00,50.6,47.8,30.11,SW,231,0.0,0.0,90,0.00,,,0.00,Wunderground v.1.13,2013-06-05 09:15:00,
2013-06-05 05:20:00,50.6,47.8,30.11,SW,230,0.0,0.0,90,0.00,,,0.00,Wunderground v.1.13,2013-06-05 09:20:00,
2013-06-05 05:25:00,50.6,47.8,30.12,SW,230,0.0,0.0,90,0.00,,,0.00,Wunderground v.1.13,2013-06-05 09:25:00,
2013-06-05 05:35:00,50.6,47.8,30.12,SW,230,0.0,0.0,90,0.00,,,0.00,Wunderground v.1.13,2013-06-05 09:35:00,
2013-06-05 05:40:00,50.6,47.8,30.12,SW,231,0.0,0.0,90,0.00,,,0.00,Wunderground v.1.13,2013-06-05 09:40:00,
2013-06-05 05:45:00,50.6,47.8,30.12,SW,231,0.0,0.0,90,0.00,,,0.00,Wunderground v.1.13,2013-06-05 09:45:00,
2013-06-05 05:50:00,50.6,47.8,30.12,SW,230,0.0,0.0,90,0.00,,,0.00,Wunderground v.1.13,2013-06-05 09:50:00,
2013-06-05 05:55:00,50.5,47.7,30.12,SW,230,0.0,0.0,90,0.00,,,0.00,Wunderground v.1.13,2013-06-05 09:55:00,
2013-06-05 06:00:00,50.3,47.5,30.11,SW,231,0.0,0.0,90,0.00,,,0.00,Wunderground v.1.13,2013-06-05 10:00:00,
2013-06-05 06:05:00,50.2,47.4,30.11,SW,231,0.0,0.0,90,0.00,,,0.00,Wunderground v.1.13,2013-06-05 10:05:00,
2013-06-05 06:15:00,50.0,47.2,30.11,SW,231,0.0,0.0,90,0.00,,,0.00,Wunderground v.1.13,2013-06-05 10:15:00,
2013-06-05 06:20:00,49.9,47.1,30.11,SW,230,0.0,0.0,90,0.00,,,0.00,Wunderground v.1.13,2013-06-05 10:20:00,
2013-06-05 06:25:00,49.9,47.1,30.11,SW,230,0.0,0.0,90,0.00,,,0.00,Wunderground v.1.13,2013-06-05 10:25:00,
2013-06-05 06:35:00,50.1,47.6,30.12,SW,231,0.0,0.0,91,0.00,,,0.00,Wunderground v.1.13,2013-06-05 10:35:00,
2013-06-05 06:40:00,50.1,47.6,30.12,SW,231,0.0,0.0,91,0.00,,,0.00,Wunderground v.1.13,2013-06-05 10:40:00,
2013-06-05 06:45:00,50.1,47.6,30.12,SW,231,0.0,0.0,91,0.00,,,0.00,Wunderground v.1.13,2013-06-05 10:45:00,
2013-06-05 06:50:00,50.2,47.7,30.12,SW,231,0.0,0.0,91,0.00,,,0.00,Wunderground v.1.13,2013-06-05 10:50:00,
2013-06-05 06:55:00,50.4,47.9,30.12,SW,231,0.0,0.0,91,0.00,,,0.00,Wunderground v.1.13,2013-06-05 10:55:00,
2013-06-05 07:00:00,50.5,48.0,30.13,SW,230,0.0,0.0,91,0.00,,,0.00,Wunderground v.1.13,2013-06-05 11:00:00,
2013-06-05 07:05:00,50.5,48.0,30.13,N/A,-737280,0.0,0.0,91,0.00,,,0.00,Wunderground v.1.13,2013-06-05 11:05:00,
2013-06-05 07:15:00,50.9,48.4,30.13,SW,231,0.0,0.0,91,0.00,,,0.00,Wunderground v.1.13,2013-06-05 11:15:00,
2013-06-05 07:25:00,51.4,48.9,30.13,SW,231,0.0,0.0,91,0.00,,,0.00,Wunderground v.1.13,2013-06-05 11:25:00,
2013-06-05 07:35:00,51.7,49.5,30.13,SW,230,0.0,0.0,92,0.00,,,0.00,Wunderground v.1.13,2013-06-05 11:35:00,
2013-06-05 07:40:00,52.0,49.5,30.12,SW,230,0.0,0.0,91,0.00,,,0.00,Wunderground v.1.13,2013-06-05 11:40:00,
2013-06-05 07:50:00,52.7,50.4,30.12,SW,231,0.0,0.0,92,0.00,,,0.00,Wunderground v.1.13,2013-06-05 11:50:00,
2013-06-05 07:55:00,53.1,50.8,30.12,SW,231,0.0,0.0,92,0.00,,,0.00,Wunderground v.1.13,2013-06-05 11:55:00,
2013-06-05 08:00:00,53.5,51.2,30.12,SW,230,0.0,0.0,92,0.00,,,0.00,Wunderground v.1.13,2013-06-05 12:00:00,
2013-06-05 08:05:00,53.9,51.6,30.12,SW,230,0.0,0.0,92,0.00,,,0.00,Wunderground v.1.13,2013-06-05 12:05:00,
2013-06-05 08:15:00,54.6,52.3,30.11,SW,230,0.0,0.0,92,0.00,,,0.00,Wunderground v.1.13,2013-06-05 12:15:00,
2013-06-05 08:25:00,55.6,53.0,30.11,SW,230,0.0,0.0,91,0.00,,,0.00,Wunderground v.1.13,2013-06-05 12:25:00,
2013-06-05 08:35:00,56.4,53.5,30.11,SW,231,0.0,0.0,90,0.00,,,0.00,Wunderground v.1.13,2013-06-05 12:35:00,
2013-06-05 08:45:00,57.5,54.3,30.10,SW,231,0.0,0.0,89,0.00,,,0.00,Wunderground v.1.13,2013-06-05 12:45:00,
2013-06-05 08:55:00,59.5,55.0,30.10,SW,230,0.0,0.0,85,0.00,,,0.00,Wunderground v.1.13,2013-06-05 12:55:00,
2013-06-05 09:05:00,61.4,54.8,30.10,SW,231,0.0,0.0,79,0.00,,,0.00,Wunderground v.1.13,2013-06-05 13:05:00,
2013-06-05 09:15:00,63.5,55.8,30.09,SW,231,0.0,0.0,76,0.00,,,0.00,Wunderground v.1.13,2013-06-05 13:15:00,
2013-06-05 09:25:00,65.0,55.8,30.08,ENE,59,1.0,1.0,72,0.00,,,0.00,Wunderground v.1.13,2013-06-05 13:25:00,
2013-06-05 09:35:00,66.4,54.7,30.08,ESE,115,1.0,1.0,66,0.00,,,0.00,Wunderground v.1.13,2013-06-05 13:35:00,
2013-06-05 09:40:00,66.8,54.7,30.08,SSE,159,1.0,1.0,65,0.00,,,0.00,Wunderground v.1.13,2013-06-05 13:40:00,
2013-06-05 09:50:00,67.4,55.6,30.08,South,184,1.0,1.0,66,0.00,,,0.00,Wunderground v.1.13,2013-06-05 13:50:00,
2013-06-05 10:00:00,68.3,56.1,30.08,SE,132,1.0,1.0,65,0.00,,,0.00,Wunderground v.1.13,2013-06-05 14:00:00,
2013-06-05 10:05:00,68.6,56.4,30.08,ESE,113,1.0,4.0,65,0.00,,,0.00,Wunderground v.1.13,2013-06-05 14:05:00,
2013-06-05 10:15:00,69.7,56.5,30.07,NNE,30,1.0,1.0,63,0.00,,,0.00,Wunderground v.1.13,2013-06-05 14:15:00,
2013-06-05 10:25:00,70.8,57.1,30.07,SE,143,1.0,2.0,62,0.00,,,0.00,Wunderground v.1.13,2013-06-05 14:25:00,
2013-06-05 10:35:00,71.5,57.3,30.07,South,175,1.0,1.0,61,0.00,,,0.00,Wunderground v.1.13,2013-06-05 14:35:00,
2013-06-05 10:40:00,71.0,55.9,30.06,SSW,202,2.0,4.0,59,0.00,,,0.00,Wunderground v.1.13,2013-06-05 14:40:00,
2013-06-05 10:50:00,71.3,57.6,30.06,SSE,163,2.0,2.0,62,0.00,,,0.00,Wunderground v.1.13,2013-06-05 14:50:00,
2013-06-05 10:55:00,71.1,57.0,30.06,SSE,166,1.0,1.0,61,0.00,,,0.00,Wunderground v.1.13,2013-06-05 14:55:00,
2013-06-05 11:00:00,71.6,57.9,30.06,SE,136,1.0,1.0,62,0.00,,,0.00,Wunderground v.1.13,2013-06-05 15:00:00,
2013-06-05 11:05:00,72.2,58.0,30.06,SW,225,2.0,7.0,61,0.00,,,0.00,Wunderground v.1.13,2013-06-05 15:05:00,
2013-06-05 11:15:00,72.0,58.7,30.06,SSW,197,2.0,2.0,63,0.00,,,0.00,Wunderground v.1.13,2013-06-05 15:15:00,
2013-06-05 11:20:00,72.4,58.2,30.06,SE,140,1.0,1.0,61,0.00,,,0.00,Wunderground v.1.13,2013-06-05 15:20:00,
2013-06-05 11:30:00,73.5,59.7,30.06,ESE,113,1.0,1.0,62,0.00,,,0.00,Wunderground v.1.13,2013-06-05 15:30:00,
2013-06-05 11:40:00,74.5,59.7,30.06,ESE,105,1.0,2.0,60,0.00,,,0.00,Wunderground v.1.13,2013-06-05 15:40:00,
2013-06-05 11:50:00,74.4,59.1,30.06,West,259,1.0,1.0,59,0.00,,,0.00,Wunderground v.1.13,2013-06-05 15:50:00,
2013-06-05 11:55:00,74.6,60.3,30.05,South,176,2.0,2.0,61,0.00,,,0.00,Wunderground v.1.13,2013-06-05 15:55:00,
2013-06-05 12:00:00,74.9,59.6,30.05,West,263,1.0,2.0,59,0.00,,,0.00,Wunderground v.1.13,2013-06-05 16:00:00,
2013-06-05 12:05:00,75.1,60.3,30.05,SE,135,1.0,6.0,60,0.00,,,0.00,Wunderground v.1.13,2013-06-05 16:05:00,
2013-06-05 12:15:00,75.3,60.0,30.03,SSW,207,2.0,2.0,59,0.00,,,0.00,Wunderground v.1.13,2013-06-05 16:15:00,
2013-06-05 12:25:00,75.6,60.3,30.02,West,279,2.0,3.0,59,0.00,,,0.00,Wunderground v.1.13,2013-06-05 16:25:00,
2013-06-05 12:35:00,76.3,59.9,30.01,NNE,17,1.0,2.0,57,0.00,,,0.00,Wunderground v.1.13,2013-06-05 16:35:00,
2013-06-05 12:40:00,76.8,60.9,30.01,SE,140,1.0,5.0,58,0.00,,,0.00,Wunderground v.1.13,2013-06-05 16:40:00,
2013-06-05 12:50:00,77.0,62.5,30.01,SE,126,2.0,2.0,61,0.00,,,0.00,Wunderground v.1.13,2013-06-05 16:50:00,
2013-06-05 13:00:00,77.6,61.7,30.00,SSE,155,1.0,1.0,58,0.00,,,0.00,Wunderground v.1.13,2013-06-05 17:00:00,
2013-06-05 13:05:00,77.5,62.0,30.00,SE,136,1.0,1.0,59,0.00,,,0.00,Wunderground v.1.13,2013-06-05 17:05:00,
2013-06-05 13:15:00,78.0,63.0,29.99,East,91,2.0,2.0,60,0.00,,,0.00,Wunderground v.1.13,2013-06-05 17:15:00,
2013-06-05 13:25:00,78.6,64.0,29.99,SE,141,1.0,1.0,61,0.00,,,0.00,Wunderground v.1.13,2013-06-05 17:25:00,
2013-06-05 13:30:00,78.7,64.6,29.99,SE,137,2.0,2.0,62,0.00,,,0.00,Wunderground v.1.13,2013-06-05 17:30:00,
2013-06-05 13:35:00,78.7,63.2,29.98,SSE,167,1.0,1.0,59,0.00,,,0.00,Wunderground v.1.13,2013-06-05 17:35:00,
2013-06-05 13:45:00,78.2,64.6,29.98,SE,144,2.0,2.0,63,0.00,,,0.00,Wunderground v.1.13,2013-06-05 17:45:00,
2013-06-05 13:50:00,78.8,64.2,29.98,SE,142,2.0,2.0,61,0.00,,,0.00,Wunderground v.1.13,2013-06-05 17:50:00,
2013-06-05 13:55:00,78.7,64.1,29.98,NW,321,1.0,1.0,61,0.00,,,0.00,Wunderground v.1.13,2013-06-05 17:55:00,
2013-06-05 14:05:00,79.6,65.4,29.99,SW,220,1.0,2.0,62,0.00,,,0.00,Wunderground v.1.13,2013-06-05 18:05:00,
2013-06-05 14:15:00,79.8,64.2,29.99,SSW,207,1.0,1.0,59,0.00,,,0.00,Wunderground v.1.13,2013-06-05 18:15:00,
2013-06-05 14:20:00,80.0,65.8,29.98,SSW,207,1.0,1.0,62,0.00,,,0.00,Wunderground v.1.13,2013-06-05 18:20:00,
2013-06-05 14:30:00,80.1,64.5,29.98,SSE,161,1.0,1.0,59,0.00,,,0.00,Wunderground v.1.13,2013-06-05 18:30:00,
2013-06-05 14:40:00,79.5,64.9,29.97,WSW,255,3.0,3.0,61,0.00,,,0.00,Wunderground v.1.13,2013-06-05 18:40:00,
2013-06-05 14:45:00,79.9,65.2,29.98,SW,222,2.0,6.0,61,0.00,,,0.00,Wunderground v.1.13,2013-06-05 18:45:00,
2013-06-05 14:50:00,79.7,64.6,29.98,SSW,205,3.0,3.0,60,0.00,,,0.00,Wunderground v.1.13,2013-06-05 18:50:00,
2013-06-05 14:55:00,79.9,64.3,29.98,ESE,120,3.0,3.0,59,0.00,,,0.00,Wunderground v.1.13,2013-06-05 18:55:00,
2013-06-05 15:00:00,79.9,64.8,29.97,SSW,199,2.0,3.0,60,0.00,,,0.00,Wunderground v.1.13,2013-06-05 19:00:00,
2013-06-05 15:05:00,80.5,64.9,29.97,SW,234,2.0,2.0,59,0.00,,,0.00,Wunderground v.1.13,2013-06-05 19:05:00,
2013-06-05 15:15:00,81.2,65.5,29.97,ESE,104,2.0,2.0,59,0.00,,,0.00,Wunderground v.1.13,2013-06-05 19:15:00,
2013-06-05 15:25:00,81.2,65.0,29.97,ESE,104,1.0,3.0,58,0.00,,,0.00,Wunderground v.1.13,2013-06-05 19:25:00,
2013-06-05 15:30:00,80.9,65.7,29.97,South,178,2.0,2.0,60,0.00,,,0.00,Wunderground v.1.13,2013-06-05 19:30:00,
2013-06-05 15:40:00,80.2,65.5,29.97,SW,226,2.0,2.0,61,0.00,,,0.00,Wunderground v.1.13,2013-06-05 19:40:00,
2013-06-05 15:45:00,80.7,64.5,29.97,SW,223,2.0,2.0,58,0.00,,,0.00,Wunderground v.1.13,2013-06-05 19:45:00,
2013-06-05 15:55:00,82.3,66.0,29.96,SW,223,1.0,2.0,58,0.00,,,0.00,Wunderground v.1.13,2013-06-05 19:55:00,
2013-06-05 16:00:00,82.5,65.7,29.96,SW,223,1.0,2.0,57,0.00,,,0.00,Wunderground v.1.13,2013-06-05 20:00:00,
2013-06-05 16:05:00,81.8,65.6,29.97,SW,225,1.0,3.0,58,0.00,,,0.00,Wunderground v.1.13,2013-06-05 20:05:00,
2013-06-05 16:15:00,81.2,65.0,29.97,South,175,1.0,1.0,58,0.00,,,0.00,Wunderground v.1.13,2013-06-05 20:15:00,
2013-06-05 16:20:00,81.8,65.6,29.96,SSW,213,1.0,3.0,58,0.00,,,0.00,Wunderground v.1.13,2013-06-05 20:20:00,
2013-06-05 16:30:00,82.6,66.3,29.96,South,178,1.0,2.0,58,0.00,,,0.00,Wunderground v.1.13,2013-06-05 20:30:00,
2013-06-05 16:35:00,82.0,65.8,29.96,ESE,107,1.0,1.0,58,0.00,,,0.00,Wunderground v.1.13,2013-06-05 20:35:00,
2013-06-05 16:40:00,81.8,66.1,29.96,ESE,118,1.0,1.0,59,0.00,,,0.00,Wunderground v.1.13,2013-06-05 20:40:00,
2013-06-05 16:45:00,81.2,65.5,29.95,SSE,160,1.0,1.0,59,0.00,,,0.00,Wunderground v.1.13,2013-06-05 20:45:00,
2013-06-05 16:55:00,81.3,67.5,29.95,SSE,161,0.0,1.0,63,0.00,,,0.00,Wunderground v.1.13,2013-06-05 20:55:00,
2013-06-05 17:05:00,83.0,66.7,29.94,SSE,159,0.0,0.0,58,0.00,,,0.00,Wunderground v.1.13,2013-06-05 21:05:00,
2013-06-05 17:15:00,83.8,66.4,29.93,NNE,33,1.0,2.0,56,0.00,,,0.00,Wunderground v.1.13,2013-06-05 21:15:00,
2013-06-05 17:20:00,83.4,66.1,29.93,East,101,1.0,1.0,56,0.00,,,0.00,Wunderground v.1.13,2013-06-05 21:20:00,
2013-06-05 17:25:00,83.5,66.2,29.93,NW,317,1.0,1.0,56,0.00,,,0.00,Wunderground v.1.13,2013-06-05 21:25:00,
2013-06-05 17:35:00,84.7,67.3,29.92,NW,317,1.0,2.0,56,0.00,,,0.00,Wunderground v.1.13,2013-06-05 21:35:00,
2013-06-05 17:40:00,84.4,67.5,29.92,NW,317,1.0,2.0,57,0.00,,,0.00,Wunderground v.1.13,2013-06-05 21:40:00,
2013-06-05 17:50:00,84.3,67.4,29.92,WNW,300,1.0,1.0,57,0.00,,,0.00,Wunderground v.1.13,2013-06-05 21:50:00,
2013-06-05 17:55:00,84.4,67.0,29.92,West,267,1.0,3.0,56,0.00,,,0.00,Wunderground v.1.13,2013-06-05 21:55:00,
2013-06-05 18:00:00,83.8,65.4,29.92,West,263,1.0,1.0,54,0.00,,,0.00,Wunderground v.1.13,2013-06-05 22:00:00,
2013-06-05 18:05:00,83.9,67.0,29.91,WSW,248,0.0,1.0,57,0.00,,,0.00,Wunderground v.1.13,2013-06-05 22:05:00,
2013-06-05 18:15:00,83.8,66.9,29.91,SSE,161,0.0,3.0,57,0.00,,,0.00,Wunderground v.1.13,2013-06-05 22:15:00,
2013-06-05 18:20:00,82.1,64.8,29.92,NNW,331,2.0,3.0,56,0.00,,,0.00,Wunderground v.1.13,2013-06-05 22:20:00,
2013-06-05 18:30:00,80.2,64.6,29.92,SSW,209,2.0,2.0,59,0.00,,,0.00,Wunderground v.1.13,2013-06-05 22:30:00,
2013-06-05 18:40:00,79.3,63.7,29.93,South,186,1.0,5.0,59,0.00,,,0.00,Wunderground v.1.13,2013-06-05 22:40:00,
2013-06-05 18:50:00,78.7,63.6,29.92,SW,226,2.0,2.0,60,0.00,,,0.00,Wunderground v.1.13,2013-06-05 22:50:00,
2013-06-05 18:55:00,78.5,63.9,29.93,South,182,1.0,2.0,61,0.00,,,0.00,Wunderground v.1.13,2013-06-05 22:55:00,
2013-06-05 19:00:00,78.0,63.5,29.92,SE,136,1.0,3.0,61,0.00,,,0.00,Wunderground v.1.13,2013-06-05 23:00:00,
2013-06-05 19:05:00,77.7,63.6,29.92,South,175,1.0,1.0,62,0.00,,,0.00,Wunderground v.1.13,2013-06-05 23:05:00,
2013-06-05 19:15:00,77.5,63.9,29.92,SE,133,1.0,1.0,63,0.00,,,0.00,Wunderground v.1.13,2013-06-05 23:15:00,
2013-06-05 19:20:00,77.3,63.7,29.92,SE,126,1.0,1.0,63,0.00,,,0.00,Wunderground v.1.13,2013-06-05 23:20:00,
2013-06-05 19:25:00,77.2,63.2,29.91,SSW,208,1.0,1.0,62,0.00,,,0.00,Wunderground v.1.13,2013-06-05 23:25:00,
2013-06-05 19:30:00,77.0,63.4,29.91,SSE,153,1.0,1.0,63,0.00,,,0.00,Wunderground v.1.13,2013-06-05 23:30:00,
2013-06-05 19:40:00,76.5,63.4,29.91,SE,142,1.0,3.0,64,0.00,,,0.00,Wunderground v.1.13,2013-06-05 23:40:00,
2013-06-05 19:45:00,76.4,63.8,29.91,SE,144,0.0,0.0,65,0.00,,,0.00,Wunderground v.1.13,2013-06-05 23:45:00,
2013-06-05 19:50:00,76.3,63.7,29.91,SE,144,0.0,1.0,65,0.00,,,0.00,Wunderground v.1.13,2013-06-05 23:50:00,
2013-06-05 19:55:00,76.1,63.5,29.91,SE,144,0.0,0.0,65,0.00,,,0.00,Wunderground v.1.13,2013-06-05 23:55:00,
2013-06-05 20:00:00,76.1,63.5,29.91,SE,144,0.0,0.0,65,0.00,,,0.00,Wunderground v.1.13,2013-06-06 00:00:00,
2013-06-05 20:05:00,75.8,63.2,29.91,SE,145,0.0,0.0,65,0.00,,,0.00,Wunderground v.1.13,2013-06-06 00:05:00,
2013-06-05 20:15:00,75.6,63.4,29.91,SE,145,0.0,1.0,66,0.00,,,0.00,Wunderground v.1.13,2013-06-06 00:15:00,
2013-06-05 20:20:00,75.4,63.2,29.91,ESE,119,0.0,0.0,66,0.00,,,0.00,Wunderground v.1.13,2013-06-06 00:20:00,
2013-06-05 20:25:00,75.2,63.1,29.91,South,178,0.0,1.0,66,0.00,,,0.00,Wunderground v.1.13,2013-06-06 00:25:00,
2013-06-05 20:30:00,75.0,62.9,29.91,SE,126,0.0,0.0,66,0.00,,,0.00,Wunderground v.1.13,2013-06-06 00:30:00,
2013-06-05 20:40:00,74.5,62.4,29.91,SE,125,0.0,0.0,66,0.00,,,0.00,Wunderground v.1.13,2013-06-06 00:40:00,
2013-06-05 20:45:00,74.3,62.2,29.91,SE,133,0.0,6.0,66,0.00,,,0.00,Wunderground v.1.13,2013-06-06 00:45:00,
2013-06-05 20:50:00,74.1,62.0,29.91,NE,55,1.0,1.0,66,0.00,,,0.00,Wunderground v.1.13,2013-06-06 00:50:00,
2013-06-05 20:55:00,73.9,61.8,29.91,ENE,67,1.0,1.0,66,0.00,,,0.00,Wunderground v.1.13,2013-06-06 00:55:00,
2013-06-05 21:00:00,73.7,61.6,29.91,ENE,73,0.0,0.0,66,0.00,,,0.00,Wunderground v.1.13,2013-06-06 01:00:00,
2013-06-05 21:05:00,73.5,61.4,29.91,ENE,68,0.0,1.0,66,0.00,,,0.00,Wunderground v.1.13,2013-06-06 01:05:00,
2013-06-05 21:15:00,73.1,61.1,29.91,East,79,0.0,0.0,66,0.00,,,0.00,Wunderground v.1.13,2013-06-06 01:15:00,
2013-06-05 21:25:00,72.8,60.8,29.91,SE,128,0.0,1.0,66,0.00,,,0.00,Wunderground v.1.13,2013-06-06 01:25:00,
2013-06-05 21:35:00,72.6,61.0,29.91,SE,124,0.0,0.0,67,0.00,,,0.00,Wunderground v.1.13,2013-06-06 01:35:00,
2013-06-05 21:40:00,72.4,60.4,29.91,ESE,123,0.0,1.0,66,0.00,,,0.00,Wunderground v.1.13,2013-06-06 01:40:00,
2013-06-05 21:45:00,72.2,60.6,29.91,ESE,123,0.0,0.0,67,0.00,,,0.00,Wunderground v.1.13,2013-06-06 01:45:00,
2013-06-05 21:50:00,72.0,60.4,29.91,ESE,123,0.0,1.0,67,0.00,,,0.00,Wunderground v.1.13,2013-06-06 01:50:00,
2013-06-05 22:00:00,71.7,60.2,29.91,SE,126,1.0,1.0,67,0.00,,,0.00,Wunderground v.1.13,2013-06-06 02:00:00,
2013-06-05 22:05:00,71.5,60.0,29.91,SE,128,1.0,1.0,67,0.00,,,0.00,Wunderground v.1.13,2013-06-06 02:05:00,
2013-06-05 22:15:00,71.3,59.8,29.91,East,82,0.0,0.0,67,0.00,,,0.00,Wunderground v.1.13,2013-06-06 02:15:00,
2013-06-05 22:20:00,71.3,59.8,29.91,East,82,0.0,1.0,67,0.00,,,0.00,Wunderground v.1.13,2013-06-06 02:20:00,
2013-06-05 22:30:00,71.0,59.9,29.91,East,82,0.0,1.0,68,0.00,,,0.00,Wunderground v.1.13,2013-06-06 02:30:00,
2013-06-05 22:35:00,70.9,59.8,29.91,East,82,0.0,0.0,68,0.00,,,0.00,Wunderground v.1.13,2013-06-06 02:35:00,
2013-06-05 22:40:00,70.7,59.6,29.91,East,82,0.0,0.0,68,0.00,,,0.00,Wunderground v.1.13,2013-06-06 02:40:00,
2013-06-05 22:45:00,70.5,59.4,29.91,East,82,0.0,0.0,68,0.00,,,0.00,Wunderground v.1.13,2013-06-06 02:45:00,
2013-06-05 22:50:00,70.3,60.1,29.91,East,82,0.0,0.0,70,0.00,,,0.00,Wunderground v.1.13,2013-06-06 02:50:00,
2013-06-05 22:55:00,70.1,59.9,29.91,East,82,0.0,0.0,70,0.00,,,0.00,Wunderground v.1.13,2013-06-06 02:55:00,
2013-06-05 23:05:00,69.6,60.2,29.91,East,82,0.0,0.0,72,0.00,,,0.00,Wunderground v.1.13,2013-06-06 03:05:00,
2013-06-05 23:15:00,69.0,60.0,29.92,East,82,0.0,0.0,73,0.00,,,0.00,Wunderground v.1.13,2013-06-06 03:15:00,
2013-06-05 23:20:00,68.7,60.1,29.92,East,82,0.0,0.0,74,0.00,,,0.00,Wunderground v.1.13,2013-06-06 03:20:00,
2013-06-05 23:25:00,68.5,59.5,29.92,East,82,0.0,0.0,73,0.00,,,0.00,Wunderground v.1.13,2013-06-06 03:25:00,
2013-06-05 23:30:00,68.4,59.4,29.92,East,82,0.0,0.0,73,0.00,,,0.00,Wunderground v.1.13,2013-06-06 03:30:00,
2013-06-05 23:40:00,68.3,59.3,29.92,East,82,0.0,0.0,73,0.00,,,0.00,Wunderground v.1.13,2013-06-06 03:40:00,
2013-06-05 23:45:00,68.4,59.8,29.92,East,82,0.0,1.0,74,0.00,,,0.00,Wunderground v.1.13,2013-06-06 03:45:00,
2013-06-05 23:50:00,68.5,59.5,29.92,East,82,0.0,0.0,73,0.00,,,0.00,Wunderground v.1.13,2013-06-06 03:50:00,
2013-06-05 23:55:00,68.7,60.1,29.92,East,82,0.0,0.0,74,0.00,,,0.00,Wunderground v.1.13,2013-06-06 03:55:00,